^^
Station Historical Data
Daily Summary for February 2, 2018 Units:  English    Metric   Both
« Previous Day
Next Day »
Daily Weekly Monthly Yearly Custom
  High: Low: Average:
Temperature: TemperatureF °F 71.2 °F 78.8 °F
Dew Point: DewpointF °F 39.4 °F 44.6 °F
Humidity: Humidity% 24% 29%
Wind Speed: WindSpeedMPHmph -999.9mph -27.1mph
Wind Gust: WindSpeedGustMPHmph - -
Wind- -
Pressure: PressureIn in 29.50 in -
Precipitation: 0.00 in    
Historical Graphs
 
 
Tabular Data for February 2, 2018
Time Temperature Dew Point Pressure Wind Wind Speed Wind Gust Humidity Rainfall Rate (Hourly) solar Conditions
TemperatureF °F DewpointF °F PressureIn in Calm     Humidity% HourlyPrecipIn in SoftwareType W/m2 Conditions
08:39 71.2 °F 39.9 °F 29.57 in North -999.9 mph -999.0 mph 32% 0.00 in meteobridge W/m2
08:45 72.3 °F 39.9 °F 29.58 in East 2.0 mph 5.0 mph 31% 0.00 in meteobridge W/m2
08:52 73.0 °F 39.7 °F 29.58 in ESE 4.0 mph 6.0 mph 30% 0.00 in meteobridge W/m2
08:58 73.2 °F 39.9 °F 29.58 in NE 6.9 mph 9.0 mph 30% 0.00 in meteobridge W/m2
09:04 72.7 °F 39.4 °F 29.59 in NNE 2.9 mph 11.0 mph 30% 0.00 in meteobridge W/m2
09:10 72.0 °F 39.7 °F 29.59 in NNE 2.9 mph 14.0 mph 31% 0.00 in meteobridge W/m2
09:16 72.1 °F 39.9 °F 29.59 in ENE 4.9 mph 11.0 mph 31% 0.00 in meteobridge W/m2
09:22 72.3 °F 40.8 °F 29.59 in North 6.0 mph 14.0 mph 32% 0.00 in meteobridge W/m2
09:28 71.8 °F 41.9 °F 29.60 in NNE 6.9 mph 13.0 mph 34% 0.00 in meteobridge W/m2
09:34 71.4 °F 42.3 °F 29.60 in North 2.9 mph 14.0 mph 35% 0.00 in meteobridge W/m2
09:40 72.3 °F 42.4 °F 29.60 in ENE 4.9 mph 7.0 mph 34% 0.00 in meteobridge W/m2
09:46 72.9 °F 42.8 °F 29.61 in NNE 8.9 mph 14.0 mph 34% 0.00 in meteobridge W/m2
09:52 73.2 °F 43.2 °F 29.61 in NNE 8.9 mph 13.0 mph 34% 0.00 in meteobridge W/m2
09:58 73.8 °F 43.7 °F 29.61 in NNE 4.0 mph 13.0 mph 34% 0.00 in meteobridge W/m2
10:05 73.8 °F 43.7 °F 29.62 in NNW 2.9 mph 11.0 mph 34% 0.00 in meteobridge W/m2
10:11 74.7 °F 43.7 °F 29.61 in NNE 6.0 mph 15.0 mph 33% 0.00 in meteobridge W/m2
10:17 75.7 °F 44.6 °F 29.61 in NNE 11.0 mph 16.0 mph 33% 0.00 in meteobridge W/m2
10:23 75.0 °F 44.8 °F 29.61 in NNE 2.0 mph 5.0 mph 34% 0.00 in meteobridge W/m2
10:29 75.7 °F 45.3 °F 29.61 in North 4.0 mph 8.0 mph 34% 0.00 in meteobridge W/m2
10:35 76.5 °F 46.0 °F 29.61 in NNW 6.9 mph 10.0 mph 34% 0.00 in meteobridge W/m2
10:41 76.6 °F 46.2 °F 29.61 in NNE 4.9 mph 9.0 mph 34% 0.00 in meteobridge W/m2
10:47 76.6 °F 46.2 °F 29.61 in NNW 6.9 mph 9.0 mph 34% 0.00 in meteobridge W/m2
10:54 76.5 °F 46.0 °F 29.60 in NE 2.9 mph 5.0 mph 34% 0.00 in meteobridge W/m2
11:00 76.8 °F 45.5 °F 29.61 in NNW 6.9 mph 12.0 mph 33% 0.00 in meteobridge W/m2
11:06 77.5 °F 46.2 °F 29.61 in NNW 4.0 mph 5.0 mph 33% 0.00 in meteobridge W/m2
11:12 78.6 °F 46.2 °F 29.60 in SSE 4.0 mph 4.0 mph 32% 0.00 in meteobridge W/m2
11:18 80.1 °F 47.5 °F 29.61 in North 4.9 mph 15.0 mph 32% 0.00 in meteobridge W/m2
11:24 78.6 °F 46.2 °F 29.61 in North 4.9 mph 15.0 mph 32% 0.00 in meteobridge W/m2
11:30 79.0 °F 47.5 °F 29.60 in Calm   3.0 mph 33% 0.00 in meteobridge W/m2
11:36 79.7 °F 47.3 °F 29.60 in Calm   8.0 mph 32% 0.00 in meteobridge W/m2
11:43 80.6 °F 47.1 °F 29.60 in SSE 2.0 mph 4.0 mph 31% 0.00 in meteobridge W/m2
11:49 81.0 °F 47.5 °F 29.59 in ENE 6.0 mph 8.0 mph 31% 0.00 in meteobridge W/m2
11:55 79.9 °F 46.6 °F 29.59 in NNE 2.0 mph 8.0 mph 31% 0.00 in meteobridge W/m2
12:01 79.9 °F 46.6 °F 29.60 in ENE 2.0 mph 6.0 mph 31% 0.00 in meteobridge W/m2
12:07 80.2 °F 46.9 °F 29.59 in North 8.9 mph 14.0 mph 31% 0.00 in meteobridge W/m2
12:13 79.7 °F 46.4 °F 29.59 in ENE 6.0 mph 6.0 mph 31% 0.00 in meteobridge W/m2
12:19 81.1 °F 47.7 °F 29.58 in ESE 2.9 mph 6.0 mph 31% 0.00 in meteobridge W/m2
12:25 83.5 °F 47.8 °F 29.59 in ESE 2.0 mph 5.0 mph 29% 0.00 in meteobridge W/m2
12:32 82.9 °F 48.4 °F 29.59 in NNE 10.1 mph 10.1 mph 30% 0.00 in meteobridge W/m2
12:38 80.1 °F 46.8 °F 29.58 in North 2.0 mph 9.0 mph 31% 0.00 in meteobridge W/m2
12:44 79.9 °F 46.6 °F 29.58 in SW 4.9 mph 6.0 mph 31% 0.00 in meteobridge W/m2
12:50 79.0 °F 47.5 °F 29.59 in NNE 2.9 mph 4.0 mph 33% 0.00 in meteobridge W/m2
12:56 80.4 °F 46.9 °F 29.59 in WSW 2.9 mph 7.0 mph 31% 0.00 in meteobridge W/m2
13:02 81.9 °F 47.3 °F 29.58 in North 6.0 mph 7.0 mph 30% 0.00 in meteobridge W/m2
13:08 81.1 °F 47.7 °F 29.58 in ESE 0.9 mph 3.0 mph 31% 0.00 in meteobridge W/m2
13:14 81.5 °F 47.1 °F 29.57 in NE 2.0 mph 6.0 mph 30% 0.00 in meteobridge W/m2
13:21 81.5 °F 47.1 °F 29.57 in NE 2.0 mph 4.0 mph 30% 0.00 in meteobridge W/m2
13:27 81.0 °F 47.5 °F 29.57 in SSE 2.9 mph 5.0 mph 31% 0.00 in meteobridge W/m2
13:49 84.0 °F 48.4 °F 29.57 in NE 6.0 mph 7.0 mph 29% 0.00 in meteobridge W/m2
14:08 80.4 °F 46.9 °F 29.56 in NNW 2.9 mph 11.0 mph 31% 0.00 in meteobridge W/m2
14:14 81.7 °F 47.3 °F 29.56 in NE 10.1 mph 12.0 mph 30% 0.00 in meteobridge W/m2
14:20 82.6 °F 47.1 °F 29.56 in North 4.0 mph 11.0 mph 29% 0.00 in meteobridge W/m2
14:38 82.0 °F 46.6 °F 29.54 in Calm   3.0 mph 29% 0.00 in meteobridge W/m2
14:44 81.3 °F 46.0 °F 29.54 in Calm   5.0 mph 29% 0.00 in meteobridge W/m2
14:50 81.1 °F 45.9 °F 29.54 in NNW 4.0 mph 7.0 mph 29% 0.00 in meteobridge W/m2
14:56 81.0 °F 46.6 °F 29.54 in SW 2.9 mph 8.0 mph 30% 0.00 in meteobridge W/m2
15:03 80.8 °F 46.4 °F 29.54 in Calm     30% 0.00 in meteobridge W/m2
15:09 81.1 °F 46.8 °F 29.54 in Calm   2.0 mph 30% 0.00 in meteobridge W/m2
15:15 81.0 °F 46.6 °F 29.54 in Calm   3.0 mph 30% 0.00 in meteobridge W/m2
15:21 81.0 °F 46.6 °F 29.53 in SSW 2.0 mph 4.0 mph 30% 0.00 in meteobridge W/m2
15:27 81.0 °F 46.6 °F 29.54 in SE 2.0 mph 5.0 mph 30% 0.00 in meteobridge W/m2
15:33 81.3 °F 46.9 °F 29.53 in SSE 2.0 mph 4.0 mph 30% 0.00 in meteobridge W/m2
15:39 81.7 °F 46.4 °F 29.53 in Calm     29% 0.00 in meteobridge W/m2
15:46 81.7 °F 47.3 °F 29.54 in SE 2.9 mph 5.0 mph 30% 0.00 in meteobridge W/m2
16:08 81.5 °F 46.2 °F 29.52 in ENE 2.9 mph 5.0 mph 29% 0.00 in meteobridge W/m2
16:14 81.0 °F 45.7 °F 29.52 in ENE 2.0 mph 4.0 mph 29% 0.00 in meteobridge W/m2
16:21 80.8 °F 46.4 °F 29.52 in Calm     30% 0.00 in meteobridge W/m2
16:27 81.0 °F 46.6 °F 29.52 in Calm   2.0 mph 30% 0.00 in meteobridge W/m2
16:33 81.1 °F 46.8 °F 29.52 in Calm   1.0 mph 30% 0.00 in meteobridge W/m2
16:39 81.1 °F 45.9 °F 29.52 in SE 6.9 mph 7.0 mph 29% 0.00 in meteobridge W/m2
16:55 81.0 °F 45.7 °F 29.52 in South 4.0 mph 6.0 mph 29% 0.00 in meteobridge W/m2
17:02 81.1 °F 45.9 °F 29.51 in Calm   2.0 mph 29% 0.00 in meteobridge W/m2
17:08 81.0 °F 45.7 °F 29.51 in SSW 2.0 mph 4.0 mph 29% 0.00 in meteobridge W/m2
17:14 81.3 °F 46.0 °F 29.51 in NW 2.0 mph 3.0 mph 29% 0.00 in meteobridge W/m2
17:20 82.0 °F 45.7 °F 29.51 in NE 2.0 mph 4.0 mph 28% 0.00 in meteobridge W/m2
17:26 83.3 °F 45.9 °F 29.50 in NW 0.9 mph 6.0 mph 27% 0.00 in meteobridge W/m2
17:32 84.9 °F 46.2 °F 29.50 in SE 6.9 mph 7.0 mph 26% 0.00 in meteobridge W/m2
17:38 86.0 °F 46.0 °F 29.50 in Calm   2.0 mph 25% 0.00 in meteobridge W/m2
17:45 86.4 °F 46.4 °F 29.50 in Calm   1.0 mph 25% 0.00 in meteobridge W/m2
17:51 86.7 °F 45.7 °F 29.50 in ESE 2.0 mph 5.0 mph 24% 0.00 in meteobridge W/m2
17:57 86.9 °F 45.7 °F 29.50 in SE 0.9 mph 1.0 mph 24% 0.00 in meteobridge W/m2
18:03 86.4 °F 45.3 °F 29.50 in SE 0.9 mph 2.0 mph 24% 0.00 in meteobridge W/m2
18:09 84.6 °F 45.0 °F 29.50 in South 4.0 mph 9.0 mph 25% 0.00 in meteobridge W/m2
18:16 83.5 °F 43.0 °F 29.50 in SSE 2.9 mph 5.0 mph 24% 0.00 in meteobridge W/m2
18:22 83.1 °F 43.7 °F 29.50 in South 4.0 mph 6.0 mph 25% 0.00 in meteobridge W/m2
18:28 82.9 °F 43.5 °F 29.50 in Calm   1.0 mph 25% 0.00 in meteobridge W/m2
18:42 84.2 °F 43.5 °F 29.50 in Calm   3.0 mph 24% 0.00 in meteobridge W/m2
18:48 83.3 °F 42.8 °F 29.51 in South 2.0 mph 6.0 mph 24% 0.00 in meteobridge W/m2
18:54 82.2 °F 43.0 °F 29.51 in SSE 10.1 mph 10.1 mph 25% 0.00 in meteobridge W/m2
19:00 82.0 °F 41.7 °F 29.52 in SE 11.0 mph 12.0 mph 24% 0.00 in meteobridge W/m2
19:06 81.7 °F 41.4 °F 29.52 in South 8.9 mph 17.0 mph 24% 0.00 in meteobridge W/m2
19:13 80.8 °F 41.7 °F 29.52 in SE 6.0 mph 11.0 mph 25% 0.00 in meteobridge W/m2
19:25 79.5 °F 41.5 °F 29.53 in South 2.9 mph 13.0 mph 26% 0.00 in meteobridge W/m2
19:31 79.3 °F 41.5 °F 29.53 in SSE 4.9 mph 5.0 mph 26% 0.00 in meteobridge W/m2
19:37 79.3 °F 41.5 °F 29.54 in SSE 4.9 mph -999.0 mph 26% 0.00 in meteobridge W/m2
19:43 79.3 °F 41.5 °F 29.54 in North -999.9 mph -999.0 mph 26% 0.00 in meteobridge W/m2
19:51 79.3 °F 41.5 °F 29.54 in North -999.9 mph -999.0 mph 26% 0.00 in meteobridge W/m2
Regenstein, Windhoek, Namibia
Compliments of Weather Underground - 2.5 mb